TimePST,TemperatureF,Dew PointF,Humidity,Sea Level PressureIn,VisibilityMPH,Wind Direction,Wind SpeedMPH,Gust SpeedMPH,PrecipitationIn,Events,Conditions,WindDirDegrees,DateUTC
12:53 AM,28.0,23.0,81,30.12,9.0,Calm,Calm,-,N/A,,Clear,0,2012-12-09 08:53:00
1:53 AM,28.0,23.0,81,30.14,10.0,South,3.5,-,N/A,,Clear,170,2012-12-09 09:53:00
2:53 AM,28.0,23.0,81,30.17,10.0,Calm,Calm,-,N/A,,Clear,0,2012-12-09 10:53:00
3:53 AM,27.0,21.9,81,30.18,10.0,Calm,Calm,-,N/A,,Clear,0,2012-12-09 11:53:00
4:53 AM,26.1,21.0,81,30.22,10.0,SSW,3.5,-,N/A,,Clear,200,2012-12-09 12:53:00
5:53 AM,26.1,21.0,81,30.25,10.0,Calm,Calm,-,N/A,,Clear,0,2012-12-09 13:53:00
6:53 AM,27.0,21.0,78,30.25,10.0,Calm,Calm,-,N/A,,Clear,0,2012-12-09 14:53:00
7:53 AM,26.1,21.0,81,30.29,10.0,South,3.5,-,N/A,,Clear,190,2012-12-09 15:53:00
8:53 AM,32.0,24.1,73,30.27,10.0,Calm,Calm,-,N/A,,Clear,0,2012-12-09 16:53:00
9:53 AM,37.9,26.1,62,30.27,10.0,Calm,Calm,-,N/A,,Clear,0,2012-12-09 17:53:00
11:53 AM,48.0,24.1,39,30.23,10.0,NNE,9.2,-,N/A,,Clear,20,2012-12-09 19:53:00
12:53 PM,46.9,23.0,39,30.22,10.0,NE,6.9,-,N/A,,Clear,40,2012-12-09 20:53:00
1:53 PM,46.0,23.0,40,30.23,10.0,North,4.6,-,N/A,,Clear,10,2012-12-09 21:53:00
2:53 PM,45.0,26.1,48,30.22,10.0,Calm,Calm,-,N/A,,Clear,0,2012-12-09 22:53:00
3:53 PM,41.0,26.1,55,30.26,10.0,Calm,Calm,-,N/A,,Clear,0,2012-12-09 23:53:00
4:53 PM,37.0,25.0,62,30.30,10.0,Calm,Calm,-,N/A,,Clear,0,2012-12-10 00:53:00
6:53 PM,32.0,24.1,73,30.33,10.0,South,3.5,-,N/A,,Clear,170,2012-12-10 02:53:00
7:53 PM,30.9,24.1,76,30.36,10.0,South,4.6,-,N/A,,Clear,180,2012-12-10 03:53:00
8:53 PM,30.0,24.1,79,30.35,10.0,South,3.5,-,N/A,,Clear,180,2012-12-10 04:53:00
9:53 PM,30.0,23.0,75,30.34,10.0,Calm,Calm,-,N/A,,Clear,0,2012-12-10 05:53:00
10:53 PM,28.0,23.0,81,30.33,10.0,Calm,Calm,-,N/A,,Clear,0,2012-12-10 06:53:00
11:53 PM,28.0,23.0,81,30.33,9.0,Calm,Calm,-,N/A,,Clear,0,2012-12-10 07:53:00